sensor_id;sensor_type;location;lat;lon;timestamp;P1;durP1;ratioP1;P2;durP2;ratioP2
48014;SDS011;33780;51.034;7.120;2022-10-31T00:01:58;3.40;;;1.98;;
48014;SDS011;33780;51.034;7.120;2022-10-31T00:04:23;5.47;;;2.10;;
48014;SDS011;33780;51.034;7.120;2022-10-31T00:06:48;4.45;;;2.08;;
48014;SDS011;33780;51.034;7.120;2022-10-31T00:09:14;5.50;;;2.10;;
48014;SDS011;33780;51.034;7.120;2022-10-31T00:11:39;4.55;;;1.83;;
48014;SDS011;33780;51.034;7.120;2022-10-31T00:14:04;5.55;;;1.95;;
48014;SDS011;33780;51.034;7.120;2022-10-31T00:16:30;5.88;;;2.20;;
48014;SDS011;33780;51.034;7.120;2022-10-31T00:18:56;5.15;;;1.95;;
48014;SDS011;33780;51.034;7.120;2022-10-31T00:21:23;4.55;;;2.17;;
48014;SDS011;33780;51.034;7.120;2022-10-31T00:23:52;5.40;;;1.80;;
48014;SDS011;33780;51.034;7.120;2022-10-31T00:26:17;5.47;;;2.10;;
48014;SDS011;33780;51.034;7.120;2022-10-31T00:28:43;9.73;;;2.13;;
48014;SDS011;33780;51.034;7.120;2022-10-31T00:31:09;3.33;;;2.10;;
48014;SDS011;33780;51.034;7.120;2022-10-31T00:33:36;6.55;;;2.30;;
48014;SDS011;33780;51.034;7.120;2022-10-31T00:36:03;4.75;;;2.40;;
48014;SDS011;33780;51.034;7.120;2022-10-31T00:38:29;8.93;;;2.28;;
48014;SDS011;33780;51.034;7.120;2022-10-31T00:40:55;4.70;;;2.40;;
48014;SDS011;33780;51.034;7.120;2022-10-31T00:43:21;5.03;;;2.30;;
48014;SDS011;33780;51.034;7.120;2022-10-31T00:45:46;4.25;;;2.15;;
48014;SDS011;33780;51.034;7.120;2022-10-31T00:48:11;7.97;;;2.78;;
48014;SDS011;33780;51.034;7.120;2022-10-31T00:50:40;5.38;;;2.45;;
48014;SDS011;33780;51.034;7.120;2022-10-31T00:53:06;3.70;;;1.92;;
48014;SDS011;33780;51.034;7.120;2022-10-31T00:55:31;3.75;;;2.15;;
48014;SDS011;33780;51.034;7.120;2022-10-31T00:57:57;5.03;;;1.90;;
48014;SDS011;33780;51.034;7.120;2022-10-31T01:00:22;4.22;;;1.88;;
48014;SDS011;33780;51.034;7.120;2022-10-31T01:02:48;5.43;;;1.90;;
48014;SDS011;33780;51.034;7.120;2022-10-31T01:05:13;4.10;;;2.05;;
48014;SDS011;33780;51.034;7.120;2022-10-31T01:07:39;3.88;;;1.98;;
48014;SDS011;33780;51.034;7.120;2022-10-31T01:10:06;4.93;;;2.00;;
48014;SDS011;33780;51.034;7.120;2022-10-31T01:12:36;5.63;;;2.20;;
48014;SDS011;33780;51.034;7.120;2022-10-31T01:15:02;4.30;;;2.22;;
48014;SDS011;33780;51.034;7.120;2022-10-31T01:17:28;5.68;;;2.60;;
48014;SDS011;33780;51.034;7.120;2022-10-31T01:19:54;5.00;;;2.30;;
48014;SDS011;33780;51.034;7.120;2022-10-31T01:22:19;3.38;;;1.90;;
48014;SDS011;33780;51.034;7.120;2022-10-31T01:24:45;6.82;;;2.03;;
48014;SDS011;33780;51.034;7.120;2022-10-31T01:27:10;4.68;;;1.92;;
48014;SDS011;33780;51.034;7.120;2022-10-31T01:29:35;6.60;;;2.20;;
48014;SDS011;33780;51.034;7.120;2022-10-31T01:32:01;5.05;;;1.73;;
48014;SDS011;33780;51.034;7.120;2022-10-31T01:34:26;4.38;;;1.90;;
48014;SDS011;33780;51.034;7.120;2022-10-31T01:36:52;5.57;;;2.00;;
48014;SDS011;33780;51.034;7.120;2022-10-31T01:39:17;3.90;;;1.83;;
48014;SDS011;33780;51.034;7.120;2022-10-31T01:41:46;4.75;;;2.00;;
48014;SDS011;33780;51.034;7.120;2022-10-31T01:46:39;4.97;;;2.00;;
48014;SDS011;33780;51.034;7.120;2022-10-31T01:49:13;8.25;;;2.47;;
48014;SDS011;33780;51.034;7.120;2022-10-31T01:51:43;4.13;;;2.03;;
48014;SDS011;33780;51.034;7.120;2022-10-31T01:54:13;3.42;;;1.77;;
48014;SDS011;33780;51.034;7.120;2022-10-31T01:56:43;4.03;;;2.08;;
48014;SDS011;33780;51.034;7.120;2022-10-31T01:59:11;6.18;;;2.15;;
48014;SDS011;33780;51.034;7.120;2022-10-31T02:01:40;9.70;;;2.45;;
48014;SDS011;33780;51.034;7.120;2022-10-31T02:04:05;7.07;;;2.33;;
48014;SDS011;33780;51.034;7.120;2022-10-31T02:06:43;5.80;;;2.08;;
48014;SDS011;33780;51.034;7.120;2022-10-31T02:09:13;3.50;;;1.98;;
48014;SDS011;33780;51.034;7.120;2022-10-31T02:11:40;4.10;;;2.17;;
48014;SDS011;33780;51.034;7.120;2022-10-31T02:14:07;3.42;;;1.80;;
48014;SDS011;33780;51.034;7.120;2022-10-31T02:16:32;6.68;;;2.40;;
48014;SDS011;33780;51.034;7.120;2022-10-31T02:18:58;5.00;;;2.28;;
48014;SDS011;33780;51.034;7.120;2022-10-31T02:26:59;5.10;;;2.50;;
48014;SDS011;33780;51.034;7.120;2022-10-31T02:30:07;6.05;;;2.00;;
48014;SDS011;33780;51.034;7.120;2022-10-31T02:32:35;6.50;;;2.40;;
48014;SDS011;33780;51.034;7.120;2022-10-31T02:40:59;6.10;;;2.05;;
48014;SDS011;33780;51.034;7.120;2022-10-31T02:43:35;3.90;;;1.92;;
48014;SDS011;33780;51.034;7.120;2022-10-31T02:46:18;6.88;;;2.60;;
48014;SDS011;33780;51.034;7.120;2022-10-31T02:48:50;6.25;;;2.60;;
48014;SDS011;33780;51.034;7.120;2022-10-31T02:51:20;4.50;;;2.30;;
48014;SDS011;33780;51.034;7.120;2022-10-31T02:53:45;4.43;;;2.20;;
48014;SDS011;33780;51.034;7.120;2022-10-31T02:56:12;3.60;;;1.67;;
48014;SDS011;33780;51.034;7.120;2022-10-31T02:58:44;6.32;;;2.50;;
48014;SDS011;33780;51.034;7.120;2022-10-31T03:01:39;5.55;;;2.13;;
48014;SDS011;33780;51.034;7.120;2022-10-31T03:04:43;5.15;;;2.20;;
48014;SDS011;33780;51.034;7.120;2022-10-31T03:12:39;3.85;;;1.92;;
48014;SDS011;33780;51.034;7.120;2022-10-31T03:15:43;4.78;;;2.20;;
48014;SDS011;33780;51.034;7.120;2022-10-31T03:18:10;5.30;;;2.10;;
48014;SDS011;33780;51.034;7.120;2022-10-31T03:20:45;3.72;;;2.08;;
48014;SDS011;33780;51.034;7.120;2022-10-31T03:23:16;4.97;;;2.20;;
48014;SDS011;33780;51.034;7.120;2022-10-31T03:25:44;6.05;;;2.20;;
48014;SDS011;33780;51.034;7.120;2022-10-31T03:28:12;4.35;;;2.10;;
48014;SDS011;33780;51.034;7.120;2022-10-31T03:30:41;5.80;;;1.98;;
48014;SDS011;33780;51.034;7.120;2022-10-31T03:33:10;6.70;;;2.22;;
48014;SDS011;33780;51.034;7.120;2022-10-31T03:35:42;9.33;;;2.20;;
48014;SDS011;33780;51.034;7.120;2022-10-31T03:38:11;5.07;;;2.25;;
48014;SDS011;33780;51.034;7.120;2022-10-31T03:40:39;5.18;;;2.22;;
48014;SDS011;33780;51.034;7.120;2022-10-31T03:43:07;4.53;;;2.03;;
48014;SDS011;33780;51.034;7.120;2022-10-31T03:45:39;6.55;;;2.47;;
48014;SDS011;33780;51.034;7.120;2022-10-31T03:48:08;4.60;;;2.00;;
48014;SDS011;33780;51.034;7.120;2022-10-31T03:56:19;4.60;;;2.00;;
48014;SDS011;33780;51.034;7.120;2022-10-31T03:59:05;7.70;;;2.30;;
48014;SDS011;33780;51.034;7.120;2022-10-31T04:01:38;7.13;;;2.60;;
48014;SDS011;33780;51.034;7.120;2022-10-31T04:06:34;7.90;;;2.35;;
48014;SDS011;33780;51.034;7.120;2022-10-31T04:09:03;5.28;;;2.50;;
48014;SDS011;33780;51.034;7.120;2022-10-31T04:11:39;5.50;;;2.15;;
48014;SDS011;33780;51.034;7.120;2022-10-31T04:14:08;5.85;;;2.53;;
48014;SDS011;33780;51.034;7.120;2022-10-31T04:16:36;7.57;;;2.55;;
48014;SDS011;33780;51.034;7.120;2022-10-31T04:19:02;6.47;;;2.30;;
48014;SDS011;33780;51.034;7.120;2022-10-31T04:21:28;5.28;;;2.05;;
48014;SDS011;33780;51.034;7.120;2022-10-31T04:23:55;4.85;;;2.17;;
48014;SDS011;33780;51.034;7.120;2022-10-31T04:26:20;6.07;;;2.17;;
48014;SDS011;33780;51.034;7.120;2022-10-31T04:28:46;6.75;;;2.15;;
48014;SDS011;33780;51.034;7.120;2022-10-31T04:31:11;5.53;;;2.10;;
48014;SDS011;33780;51.034;7.120;2022-10-31T04:33:37;4.95;;;2.45;;
48014;SDS011;33780;51.034;7.120;2022-10-31T04:36:03;5.90;;;2.50;;
48014;SDS011;33780;51.034;7.120;2022-10-31T04:38:29;6.45;;;2.15;;
48014;SDS011;33780;51.034;7.120;2022-10-31T04:40:55;5.15;;;2.40;;
48014;SDS011;33780;51.034;7.120;2022-10-31T04:43:20;5.05;;;2.80;;
48014;SDS011;33780;51.034;7.120;2022-10-31T04:45:45;4.78;;;1.88;;
48014;SDS011;33780;51.034;7.120;2022-10-31T04:48:11;4.68;;;2.15;;
48014;SDS011;33780;51.034;7.120;2022-10-31T04:50:36;5.75;;;2.03;;
48014;SDS011;33780;51.034;7.120;2022-10-31T04:53:02;6.88;;;2.45;;
48014;SDS011;33780;51.034;7.120;2022-10-31T04:55:27;4.93;;;2.33;;
48014;SDS011;33780;51.034;7.120;2022-10-31T04:57:52;5.32;;;2.38;;
48014;SDS011;33780;51.034;7.120;2022-10-31T05:00:18;4.80;;;2.05;;
48014;SDS011;33780;51.034;7.120;2022-10-31T05:02:45;5.25;;;2.45;;
48014;SDS011;33780;51.034;7.120;2022-10-31T05:05:12;5.80;;;2.42;;
48014;SDS011;33780;51.034;7.120;2022-10-31T05:07:42;4.60;;;1.95;;
48014;SDS011;33780;51.034;7.120;2022-10-31T05:10:10;5.80;;;2.55;;
48014;SDS011;33780;51.034;7.120;2022-10-31T05:12:37;5.80;;;2.40;;
48014;SDS011;33780;51.034;7.120;2022-10-31T05:15:02;5.80;;;2.35;;
48014;SDS011;33780;51.034;7.120;2022-10-31T05:17:30;4.90;;;2.45;;
48014;SDS011;33780;51.034;7.120;2022-10-31T05:19:56;5.63;;;2.60;;
48014;SDS011;33780;51.034;7.120;2022-10-31T05:22:21;6.80;;;2.65;;
48014;SDS011;33780;51.034;7.120;2022-10-31T05:24:46;7.78;;;2.50;;
48014;SDS011;33780;51.034;7.120;2022-10-31T05:27:12;7.90;;;2.40;;
48014;SDS011;33780;51.034;7.120;2022-10-31T05:29:37;7.75;;;2.85;;
48014;SDS011;33780;51.034;7.120;2022-10-31T05:32:02;6.03;;;2.53;;
48014;SDS011;33780;51.034;7.120;2022-10-31T05:34:28;6.13;;;2.42;;
48014;SDS011;33780;51.034;7.120;2022-10-31T05:36:53;4.88;;;2.53;;
48014;SDS011;33780;51.034;7.120;2022-10-31T05:39:18;6.45;;;2.78;;
48014;SDS011;33780;51.034;7.120;2022-10-31T05:41:43;6.45;;;2.90;;
48014;SDS011;33780;51.034;7.120;2022-10-31T05:44:09;5.90;;;2.85;;
48014;SDS011;33780;51.034;7.120;2022-10-31T05:46:34;5.85;;;3.10;;
48014;SDS011;33780;51.034;7.120;2022-10-31T05:48:59;6.70;;;3.40;;
48014;SDS011;33780;51.034;7.120;2022-10-31T05:51:24;7.80;;;3.45;;
48014;SDS011;33780;51.034;7.120;2022-10-31T05:53:50;5.78;;;3.10;;
48014;SDS011;33780;51.034;7.120;2022-10-31T05:56:15;7.60;;;2.90;;
48014;SDS011;33780;51.034;7.120;2022-10-31T05:58:40;6.05;;;2.80;;
48014;SDS011;33780;51.034;7.120;2022-10-31T06:01:06;9.02;;;3.63;;
48014;SDS011;33780;51.034;7.120;2022-10-31T06:03:31;16.17;;;5.30;;
48014;SDS011;33780;51.034;7.120;2022-10-31T06:05:56;34.58;;;10.20;;
48014;SDS011;33780;51.034;7.120;2022-10-31T06:08:22;28.98;;;9.40;;
48014;SDS011;33780;51.034;7.120;2022-10-31T06:10:47;24.00;;;8.82;;
48014;SDS011;33780;51.034;7.120;2022-10-31T06:13:12;13.68;;;5.15;;
48014;SDS011;33780;51.034;7.120;2022-10-31T06:15:38;15.88;;;5.05;;
48014;SDS011;33780;51.034;7.120;2022-10-31T06:18:04;8.18;;;3.50;;
48014;SDS011;33780;51.034;7.120;2022-10-31T06:20:30;9.50;;;3.35;;
48014;SDS011;33780;51.034;7.120;2022-10-31T06:22:56;7.85;;;3.25;;
48014;SDS011;33780;51.034;7.120;2022-10-31T06:25:21;5.72;;;2.83;;
48014;SDS011;33780;51.034;7.120;2022-10-31T06:27:46;5.95;;;3.03;;
48014;SDS011;33780;51.034;7.120;2022-10-31T06:30:12;5.75;;;2.72;;
48014;SDS011;33780;51.034;7.120;2022-10-31T06:32:37;6.20;;;2.25;;
48014;SDS011;33780;51.034;7.120;2022-10-31T06:35:03;3.88;;;2.22;;
48014;SDS011;33780;51.034;7.120;2022-10-31T06:37:28;6.55;;;2.47;;
48014;SDS011;33780;51.034;7.120;2022-10-31T06:39:54;4.43;;;2.30;;
48014;SDS011;33780;51.034;7.120;2022-10-31T06:42:19;4.30;;;2.35;;
48014;SDS011;33780;51.034;7.120;2022-10-31T06:44:44;5.40;;;2.40;;
48014;SDS011;33780;51.034;7.120;2022-10-31T06:47:10;4.85;;;2.40;;
48014;SDS011;33780;51.034;7.120;2022-10-31T06:49:35;8.57;;;3.00;;
48014;SDS011;33780;51.034;7.120;2022-10-31T06:52:00;5.65;;;3.20;;
48014;SDS011;33780;51.034;7.120;2022-10-31T06:54:26;8.80;;;2.90;;
48014;SDS011;33780;51.034;7.120;2022-10-31T06:56:52;8.23;;;3.08;;
48014;SDS011;33780;51.034;7.120;2022-10-31T06:59:17;9.05;;;2.95;;
48014;SDS011;33780;51.034;7.120;2022-10-31T07:01:42;7.40;;;2.92;;
48014;SDS011;33780;51.034;7.120;2022-10-31T07:04:11;6.95;;;3.20;;
48014;SDS011;33780;51.034;7.120;2022-10-31T07:06:36;8.05;;;3.38;;
48014;SDS011;33780;51.034;7.120;2022-10-31T07:09:02;7.53;;;2.95;;
48014;SDS011;33780;51.034;7.120;2022-10-31T07:11:28;6.18;;;2.45;;
48014;SDS011;33780;51.034;7.120;2022-10-31T07:13:53;6.65;;;2.63;;
48014;SDS011;33780;51.034;7.120;2022-10-31T07:16:19;6.10;;;2.47;;
48014;SDS011;33780;51.034;7.120;2022-10-31T07:18:44;7.25;;;2.40;;
48014;SDS011;33780;51.034;7.120;2022-10-31T07:21:09;6.25;;;2.47;;
48014;SDS011;33780;51.034;7.120;2022-10-31T07:23:35;4.95;;;2.90;;
48014;SDS011;33780;51.034;7.120;2022-10-31T07:26:00;6.30;;;2.83;;
48014;SDS011;33780;51.034;7.120;2022-10-31T07:28:26;5.30;;;2.75;;
48014;SDS011;33780;51.034;7.120;2022-10-31T07:30:52;5.40;;;2.67;;
48014;SDS011;33780;51.034;7.120;2022-10-31T07:33:19;11.85;;;2.75;;
48014;SDS011;33780;51.034;7.120;2022-10-31T07:35:45;5.72;;;2.45;;
48014;SDS011;33780;51.034;7.120;2022-10-31T07:38:11;6.95;;;2.60;;
48014;SDS011;33780;51.034;7.120;2022-10-31T07:40:38;5.78;;;2.67;;
48014;SDS011;33780;51.034;7.120;2022-10-31T07:43:07;7.20;;;2.67;;
48014;SDS011;33780;51.034;7.120;2022-10-31T07:45:33;6.07;;;2.70;;
48014;SDS011;33780;51.034;7.120;2022-10-31T07:47:58;5.85;;;2.70;;
48014;SDS011;33780;51.034;7.120;2022-10-31T07:50:28;5.65;;;2.83;;
48014;SDS011;33780;51.034;7.120;2022-10-31T07:52:58;5.88;;;2.75;;
48014;SDS011;33780;51.034;7.120;2022-10-31T07:55:33;6.38;;;3.00;;
48014;SDS011;33780;51.034;7.120;2022-10-31T07:58:00;8.32;;;3.38;;
48014;SDS011;33780;51.034;7.120;2022-10-31T08:00:26;7.57;;;3.53;;
48014;SDS011;33780;51.034;7.120;2022-10-31T08:05:23;7.93;;;3.40;;
48014;SDS011;33780;51.034;7.120;2022-10-31T08:07:48;8.02;;;2.88;;
48014;SDS011;33780;51.034;7.120;2022-10-31T08:10:14;6.20;;;3.25;;
48014;SDS011;33780;51.034;7.120;2022-10-31T08:12:39;6.97;;;3.35;;
48014;SDS011;33780;51.034;7.120;2022-10-31T08:15:04;7.30;;;3.13;;
48014;SDS011;33780;51.034;7.120;2022-10-31T08:17:30;6.50;;;3.28;;
48014;SDS011;33780;51.034;7.120;2022-10-31T08:20:03;5.80;;;2.88;;
48014;SDS011;33780;51.034;7.120;2022-10-31T08:22:29;6.63;;;2.53;;
48014;SDS011;33780;51.034;7.120;2022-10-31T08:24:55;6.20;;;2.78;;
48014;SDS011;33780;51.034;7.120;2022-10-31T08:27:20;5.75;;;2.97;;
48014;SDS011;33780;51.034;7.120;2022-10-31T08:29:45;5.38;;;2.47;;
48014;SDS011;33780;51.034;7.120;2022-10-31T08:32:10;5.75;;;2.70;;
48014;SDS011;33780;51.034;7.120;2022-10-31T08:34:36;6.30;;;3.05;;
48014;SDS011;33780;51.034;7.120;2022-10-31T08:37:01;8.18;;;3.08;;
48014;SDS011;33780;51.034;7.120;2022-10-31T08:39:26;6.47;;;2.80;;
48014;SDS011;33780;51.034;7.120;2022-10-31T08:41:52;6.88;;;3.38;;
48014;SDS011;33780;51.034;7.120;2022-10-31T08:44:17;8.63;;;2.80;;
48014;SDS011;33780;51.034;7.120;2022-10-31T08:46:42;6.28;;;2.80;;
48014;SDS011;33780;51.034;7.120;2022-10-31T08:49:08;5.57;;;2.63;;
48014;SDS011;33780;51.034;7.120;2022-10-31T08:51:33;4.63;;;2.80;;
48014;SDS011;33780;51.034;7.120;2022-10-31T08:53:58;5.65;;;2.58;;
48014;SDS011;33780;51.034;7.120;2022-10-31T08:56:23;6.97;;;3.13;;
48014;SDS011;33780;51.034;7.120;2022-10-31T08:58:49;7.95;;;3.20;;
48014;SDS011;33780;51.034;7.120;2022-10-31T09:01:15;5.20;;;2.80;;
48014;SDS011;33780;51.034;7.120;2022-10-31T09:03:41;8.75;;;3.20;;
48014;SDS011;33780;51.034;7.120;2022-10-31T09:06:06;8.70;;;2.85;;
48014;SDS011;33780;51.034;7.120;2022-10-31T09:08:34;7.18;;;2.60;;
48014;SDS011;33780;51.034;7.120;2022-10-31T09:10:59;6.90;;;3.45;;
48014;SDS011;33780;51.034;7.120;2022-10-31T09:13:25;6.25;;;3.00;;
48014;SDS011;33780;51.034;7.120;2022-10-31T09:15:51;7.93;;;3.40;;
48014;SDS011;33780;51.034;7.120;2022-10-31T09:18:17;7.18;;;2.92;;
48014;SDS011;33780;51.034;7.120;2022-10-31T09:20:45;10.63;;;2.95;;
48014;SDS011;33780;51.034;7.120;2022-10-31T09:23:15;6.18;;;2.97;;
48014;SDS011;33780;51.034;7.120;2022-10-31T09:25:42;8.15;;;3.13;;
48014;SDS011;33780;51.034;7.120;2022-10-31T09:28:09;7.30;;;3.17;;
48014;SDS011;33780;51.034;7.120;2022-10-31T09:30:36;11.38;;;3.50;;
48014;SDS011;33780;51.034;7.120;2022-10-31T09:33:06;6.00;;;2.97;;
48014;SDS011;33780;51.034;7.120;2022-10-31T09:35:34;9.43;;;3.03;;
48014;SDS011;33780;51.034;7.120;2022-10-31T09:38:04;7.68;;;2.90;;
48014;SDS011;33780;51.034;7.120;2022-10-31T09:40:33;6.97;;;3.00;;
48014;SDS011;33780;51.034;7.120;2022-10-31T09:45:36;6.80;;;3.30;;
48014;SDS011;33780;51.034;7.120;2022-10-31T09:50:53;8.38;;;3.78;;
48014;SDS011;33780;51.034;7.120;2022-10-31T09:53:34;7.80;;;2.97;;
48014;SDS011;33780;51.034;7.120;2022-10-31T09:56:09;5.50;;;2.83;;
48014;SDS011;33780;51.034;7.120;2022-10-31T09:58:49;10.95;;;3.35;;
48014;SDS011;33780;51.034;7.120;2022-10-31T10:06:52;7.93;;;2.85;;
48014;SDS011;33780;51.034;7.120;2022-10-31T10:09:19;8.30;;;3.33;;
48014;SDS011;33780;51.034;7.120;2022-10-31T10:12:00;9.00;;;3.70;;
48014;SDS011;33780;51.034;7.120;2022-10-31T10:15:00;9.48;;;4.28;;
48014;SDS011;33780;51.034;7.120;2022-10-31T10:17:54;12.90;;;4.18;;
48014;SDS011;33780;51.034;7.120;2022-10-31T10:20:35;10.07;;;4.65;;
48014;SDS011;33780;51.034;7.120;2022-10-31T10:28:38;11.05;;;3.50;;
48014;SDS011;33780;51.034;7.120;2022-10-31T10:33:40;6.97;;;3.70;;
48014;SDS011;33780;51.034;7.120;2022-10-31T10:36:17;12.10;;;4.25;;
48014;SDS011;33780;51.034;7.120;2022-10-31T10:38:49;8.68;;;3.47;;
48014;SDS011;33780;51.034;7.120;2022-10-31T10:41:27;9.65;;;2.90;;
48014;SDS011;33780;51.034;7.120;2022-10-31T10:43:58;9.38;;;3.13;;
48014;SDS011;33780;51.034;7.120;2022-10-31T10:46:32;7.88;;;3.50;;
48014;SDS011;33780;51.034;7.120;2022-10-31T10:49:36;7.25;;;3.10;;
48014;SDS011;33780;51.034;7.120;2022-10-31T11:00:48;9.77;;;3.10;;
48014;SDS011;33780;51.034;7.120;2022-10-31T11:03:15;9.25;;;2.80;;
48014;SDS011;33780;51.034;7.120;2022-10-31T11:05:44;6.78;;;2.92;;
48014;SDS011;33780;51.034;7.120;2022-10-31T11:11:25;6.03;;;3.28;;
48014;SDS011;33780;51.034;7.120;2022-10-31T11:13:45;7.50;;;2.97;;
48014;SDS011;33780;51.034;7.120;2022-10-31T11:21:52;7.45;;;2.50;;
48014;SDS011;33780;51.034;7.120;2022-10-31T11:24:20;7.30;;;3.20;;
48014;SDS011;33780;51.034;7.120;2022-10-31T11:26:48;7.15;;;2.50;;
48014;SDS011;33780;51.034;7.120;2022-10-31T11:29:15;6.25;;;2.38;;
48014;SDS011;33780;51.034;7.120;2022-10-31T11:32:01;8.77;;;2.90;;
48014;SDS011;33780;51.034;7.120;2022-10-31T11:34:30;12.32;;;2.67;;
48014;SDS011;33780;51.034;7.120;2022-10-31T11:37:15;3.90;;;2.13;;
48014;SDS011;33780;51.034;7.120;2022-10-31T11:39:44;6.35;;;2.65;;
48014;SDS011;33780;51.034;7.120;2022-10-31T11:42:18;6.47;;;2.53;;
48014;SDS011;33780;51.034;7.120;2022-10-31T11:44:46;5.93;;;2.53;;
48014;SDS011;33780;51.034;7.120;2022-10-31T11:47:13;7.10;;;2.38;;
48014;SDS011;33780;51.034;7.120;2022-10-31T11:49:42;7.50;;;2.10;;
48014;SDS011;33780;51.034;7.120;2022-10-31T11:52:17;9.05;;;2.50;;
48014;SDS011;33780;51.034;7.120;2022-10-31T11:55:00;9.10;;;2.42;;
48014;SDS011;33780;51.034;7.120;2022-10-31T11:57:43;3.97;;;2.10;;
48014;SDS011;33780;51.034;7.120;2022-10-31T12:00:21;6.20;;;2.15;;
48014;SDS011;33780;51.034;7.120;2022-10-31T12:02:48;5.47;;;2.22;;
48014;SDS011;33780;51.034;7.120;2022-10-31T12:05:26;6.18;;;2.10;;
48014;SDS011;33780;51.034;7.120;2022-10-31T12:07:58;5.20;;;2.08;;
48014;SDS011;33780;51.034;7.120;2022-10-31T12:10:25;6.18;;;2.35;;
48014;SDS011;33780;51.034;7.120;2022-10-31T12:15:50;6.13;;;2.67;;
48014;SDS011;33780;51.034;7.120;2022-10-31T12:21:25;5.13;;;2.35;;
48014;SDS011;33780;51.034;7.120;2022-10-31T12:24:00;5.95;;;2.20;;
48014;SDS011;33780;51.034;7.120;2022-10-31T12:26:48;6.05;;;2.00;;
48014;SDS011;33780;51.034;7.120;2022-10-31T12:32:01;5.82;;;2.40;;
48014;SDS011;33780;51.034;7.120;2022-10-31T12:43:23;5.07;;;2.50;;
48014;SDS011;33780;51.034;7.120;2022-10-31T12:46:00;7.20;;;2.00;;
48014;SDS011;33780;51.034;7.120;2022-10-31T12:53:53;7.70;;;2.42;;
48014;SDS011;33780;51.034;7.120;2022-10-31T13:01:47;7.07;;;2.80;;
48014;SDS011;33780;51.034;7.120;2022-10-31T13:07:05;6.03;;;2.13;;
48014;SDS011;33780;51.034;7.120;2022-10-31T13:09:53;7.88;;;1.80;;
48014;SDS011;33780;51.034;7.120;2022-10-31T13:12:32;4.75;;;1.83;;
48014;SDS011;33780;51.034;7.120;2022-10-31T13:15:01;4.63;;;1.88;;
48014;SDS011;33780;51.034;7.120;2022-10-31T13:17:59;4.72;;;1.80;;
48014;SDS011;33780;51.034;7.120;2022-10-31T13:20:30;6.88;;;2.13;;
48014;SDS011;33780;51.034;7.120;2022-10-31T13:23:20;5.78;;;2.10;;
48014;SDS011;33780;51.034;7.120;2022-10-31T13:25:55;3.72;;;1.73;;
48014;SDS011;33780;51.034;7.120;2022-10-31T13:28:37;3.88;;;1.95;;
48014;SDS011;33780;51.034;7.120;2022-10-31T13:31:09;5.47;;;1.77;;
48014;SDS011;33780;51.034;7.120;2022-10-31T13:33:40;4.32;;;1.92;;
48014;SDS011;33780;51.034;7.120;2022-10-31T13:36:14;8.07;;;2.17;;
48014;SDS011;33780;51.034;7.120;2022-10-31T13:38:48;5.10;;;2.10;;
48014;SDS011;33780;51.034;7.120;2022-10-31T13:47:18;6.90;;;2.10;;
48014;SDS011;33780;51.034;7.120;2022-10-31T13:50:02;4.28;;;1.88;;
48014;SDS011;33780;51.034;7.120;2022-10-31T13:58:19;4.50;;;1.65;;
48014;SDS011;33780;51.034;7.120;2022-10-31T14:01:24;5.22;;;1.80;;
48014;SDS011;33780;51.034;7.120;2022-10-31T14:03:47;3.72;;;1.67;;
48014;SDS011;33780;51.034;7.120;2022-10-31T14:06:21;3.72;;;1.75;;
48014;SDS011;33780;51.034;7.120;2022-10-31T14:08:49;4.25;;;1.70;;
48014;SDS011;33780;51.034;7.120;2022-10-31T14:11:22;4.20;;;1.73;;
48014;SDS011;33780;51.034;7.120;2022-10-31T14:13:52;5.70;;;2.00;;
48014;SDS011;33780;51.034;7.120;2022-10-31T14:16:28;4.50;;;2.00;;
48014;SDS011;33780;51.034;7.120;2022-10-31T14:21:36;8.00;;;1.90;;
48014;SDS011;33780;51.034;7.120;2022-10-31T14:26:38;4.95;;;2.08;;
48014;SDS011;33780;51.034;7.120;2022-10-31T14:34:35;5.63;;;1.83;;
48014;SDS011;33780;51.034;7.120;2022-10-31T14:45:33;7.63;;;1.90;;
48014;SDS011;33780;51.034;7.120;2022-10-31T14:53:19;5.80;;;2.10;;
48014;SDS011;33780;51.034;7.120;2022-10-31T14:55:49;5.03;;;1.60;;
48014;SDS011;33780;51.034;7.120;2022-10-31T14:58:18;5.07;;;1.90;;
48014;SDS011;33780;51.034;7.120;2022-10-31T15:00:46;4.75;;;1.67;;
48014;SDS011;33780;51.034;7.120;2022-10-31T15:03:14;5.80;;;1.75;;
48014;SDS011;33780;51.034;7.120;2022-10-31T15:05:50;3.85;;;1.65;;
48014;SDS011;33780;51.034;7.120;2022-10-31T15:11:20;5.72;;;1.70;;
48014;SDS011;33780;51.034;7.120;2022-10-31T15:13:59;5.38;;;2.08;;
48014;SDS011;33780;51.034;7.120;2022-10-31T15:16:35;7.22;;;2.00;;
48014;SDS011;33780;51.034;7.120;2022-10-31T15:19:10;4.30;;;1.60;;
48014;SDS011;33780;51.034;7.120;2022-10-31T15:21:40;2.90;;;1.52;;
48014;SDS011;33780;51.034;7.120;2022-10-31T15:24:10;4.40;;;1.67;;
48014;SDS011;33780;51.034;7.120;2022-10-31T15:26:40;7.30;;;1.45;;
48014;SDS011;33780;51.034;7.120;2022-10-31T15:29:17;3.58;;;1.65;;
48014;SDS011;33780;51.034;7.120;2022-10-31T15:31:53;8.45;;;2.20;;
48014;SDS011;33780;51.034;7.120;2022-10-31T15:34:39;4.70;;;1.85;;
48014;SDS011;33780;51.034;7.120;2022-10-31T15:37:16;6.20;;;1.80;;
48014;SDS011;33780;51.034;7.120;2022-10-31T15:39:44;4.32;;;1.67;;
48014;SDS011;33780;51.034;7.120;2022-10-31T15:42:30;3.95;;;1.77;;
48014;SDS011;33780;51.034;7.120;2022-10-31T15:45:21;4.88;;;1.67;;
48014;SDS011;33780;51.034;7.120;2022-10-31T15:47:54;6.38;;;1.65;;
48014;SDS011;33780;51.034;7.120;2022-10-31T15:52:58;6.13;;;1.60;;
48014;SDS011;33780;51.034;7.120;2022-10-31T15:55:25;6.68;;;1.80;;
48014;SDS011;33780;51.034;7.120;2022-10-31T15:58:03;4.70;;;1.33;;
48014;SDS011;33780;51.034;7.120;2022-10-31T16:00:37;4.60;;;1.70;;
48014;SDS011;33780;51.034;7.120;2022-10-31T16:03:07;5.38;;;1.60;;
48014;SDS011;33780;51.034;7.120;2022-10-31T16:05:46;6.90;;;1.63;;
48014;SDS011;33780;51.034;7.120;2022-10-31T16:08:35;5.30;;;1.58;;
48014;SDS011;33780;51.034;7.120;2022-10-31T16:13:54;7.88;;;1.92;;
48014;SDS011;33780;51.034;7.120;2022-10-31T16:16:19;4.32;;;1.70;;
48014;SDS011;33780;51.034;7.120;2022-10-31T16:18:47;3.50;;;1.48;;
48014;SDS011;33780;51.034;7.120;2022-10-31T16:21:14;4.32;;;1.60;;
48014;SDS011;33780;51.034;7.120;2022-10-31T16:23:46;4.72;;;1.73;;
48014;SDS011;33780;51.034;7.120;2022-10-31T16:26:17;6.57;;;1.90;;
48014;SDS011;33780;51.034;7.120;2022-10-31T16:28:50;8.88;;;2.35;;
48014;SDS011;33780;51.034;7.120;2022-10-31T16:31:24;4.95;;;1.73;;
48014;SDS011;33780;51.034;7.120;2022-10-31T16:34:02;5.10;;;1.90;;
48014;SDS011;33780;51.034;7.120;2022-10-31T16:36:40;6.72;;;1.75;;
48014;SDS011;33780;51.034;7.120;2022-10-31T16:39:07;3.65;;;1.65;;
48014;SDS011;33780;51.034;7.120;2022-10-31T16:41:42;5.07;;;1.40;;
48014;SDS011;33780;51.034;7.120;2022-10-31T16:44:23;4.15;;;1.77;;
48014;SDS011;33780;51.034;7.120;2022-10-31T16:49:37;4.95;;;1.50;;
48014;SDS011;33780;51.034;7.120;2022-10-31T16:52:03;4.43;;;1.77;;
48014;SDS011;33780;51.034;7.120;2022-10-31T16:54:28;3.75;;;1.33;;
48014;SDS011;33780;51.034;7.120;2022-10-31T16:56:54;4.82;;;1.70;;
48014;SDS011;33780;51.034;7.120;2022-10-31T16:59:29;5.18;;;2.00;;
48014;SDS011;33780;51.034;7.120;2022-10-31T17:01:55;4.47;;;1.92;;
48014;SDS011;33780;51.034;7.120;2022-10-31T17:04:21;6.63;;;2.10;;
48014;SDS011;33780;51.034;7.120;2022-10-31T17:06:49;5.13;;;2.20;;
48014;SDS011;33780;51.034;7.120;2022-10-31T17:09:14;4.15;;;1.75;;
48014;SDS011;33780;51.034;7.120;2022-10-31T17:11:42;6.15;;;1.92;;
48014;SDS011;33780;51.034;7.120;2022-10-31T17:14:18;5.60;;;1.77;;
48014;SDS011;33780;51.034;7.120;2022-10-31T17:16:44;4.70;;;1.73;;
48014;SDS011;33780;51.034;7.120;2022-10-31T17:19:09;7.53;;;2.15;;
48014;SDS011;33780;51.034;7.120;2022-10-31T17:21:38;6.45;;;2.10;;
48014;SDS011;33780;51.034;7.120;2022-10-31T17:24:04;5.97;;;2.15;;
48014;SDS011;33780;51.034;7.120;2022-10-31T17:26:30;4.97;;;2.03;;
48014;SDS011;33780;51.034;7.120;2022-10-31T17:29:07;6.05;;;1.85;;